sensor_id;sensor_type;location;lat;lon;timestamp;temperature;humidity
17146;DHT22;8688;54.444;18.444;2023-08-20T00:01:15;18.70;99.90
17146;DHT22;8688;54.444;18.444;2023-08-20T00:03:47;18.70;99.90
17146;DHT22;8688;54.444;18.444;2023-08-20T00:06:16;18.70;99.90
17146;DHT22;8688;54.444;18.444;2023-08-20T00:08:44;18.70;99.90
17146;DHT22;8688;54.444;18.444;2023-08-20T00:11:12;18.60;99.90
17146;DHT22;8688;54.444;18.444;2023-08-20T00:13:40;18.50;99.90
17146;DHT22;8688;54.444;18.444;2023-08-20T00:16:10;18.50;99.90
17146;DHT22;8688;54.444;18.444;2023-08-20T00:18:39;18.50;99.90
17146;DHT22;8688;54.444;18.444;2023-08-20T00:21:07;18.50;99.90
17146;DHT22;8688;54.444;18.444;2023-08-20T00:23:36;18.40;99.90
17146;DHT22;8688;54.444;18.444;2023-08-20T00:26:04;18.50;99.90
17146;DHT22;8688;54.444;18.444;2023-08-20T00:28:31;18.50;99.90
17146;DHT22;8688;54.444;18.444;2023-08-20T00:31:00;18.50;99.90
17146;DHT22;8688;54.444;18.444;2023-08-20T00:33:30;18.50;99.90
17146;DHT22;8688;54.444;18.444;2023-08-20T00:35:58;18.40;99.90
17146;DHT22;8688;54.444;18.444;2023-08-20T00:38:25;18.30;99.90
17146;DHT22;8688;54.444;18.444;2023-08-20T00:40:53;18.30;99.90
17146;DHT22;8688;54.444;18.444;2023-08-20T00:43:21;18.20;99.90
17146;DHT22;8688;54.444;18.444;2023-08-20T00:45:49;18.20;99.90
17146;DHT22;8688;54.444;18.444;2023-08-20T00:48:17;18.20;99.90
17146;DHT22;8688;54.444;18.444;2023-08-20T00:50:47;18.20;99.90
17146;DHT22;8688;54.444;18.444;2023-08-20T00:53:15;18.20;99.90
17146;DHT22;8688;54.444;18.444;2023-08-20T00:55:43;18.20;99.90
17146;DHT22;8688;54.444;18.444;2023-08-20T00:58:11;18.20;99.90
17146;DHT22;8688;54.444;18.444;2023-08-20T01:00:40;18.20;99.90
17146;DHT22;8688;54.444;18.444;2023-08-20T01:03:08;18.20;99.90
17146;DHT22;8688;54.444;18.444;2023-08-20T01:05:42;18.20;99.90
17146;DHT22;8688;54.444;18.444;2023-08-20T01:08:25;18.30;99.90
17146;DHT22;8688;54.444;18.444;2023-08-20T01:10:59;18.40;99.90
17146;DHT22;8688;54.444;18.444;2023-08-20T01:13:28;18.40;99.90
17146;DHT22;8688;54.444;18.444;2023-08-20T01:15:56;18.40;99.90
17146;DHT22;8688;54.444;18.444;2023-08-20T01:18:24;18.40;99.90
17146;DHT22;8688;54.444;18.444;2023-08-20T01:20:55;18.30;99.90
17146;DHT22;8688;54.444;18.444;2023-08-20T01:23:53;18.30;99.90
17146;DHT22;8688;54.444;18.444;2023-08-20T01:26:46;18.30;99.90
17146;DHT22;8688;54.444;18.444;2023-08-20T01:29:17;18.30;99.90
17146;DHT22;8688;54.444;18.444;2023-08-20T01:31:45;18.30;99.90
17146;DHT22;8688;54.444;18.444;2023-08-20T01:34:14;18.30;99.90
17146;DHT22;8688;54.444;18.444;2023-08-20T01:36:41;18.30;99.90
17146;DHT22;8688;54.444;18.444;2023-08-20T01:39:09;18.30;99.90
17146;DHT22;8688;54.444;18.444;2023-08-20T01:41:37;18.20;99.90
17146;DHT22;8688;54.444;18.444;2023-08-20T01:44:04;18.20;99.90
17146;DHT22;8688;54.444;18.444;2023-08-20T01:46:33;18.20;99.90
17146;DHT22;8688;54.444;18.444;2023-08-20T01:49:01;18.10;99.90
17146;DHT22;8688;54.444;18.444;2023-08-20T01:51:29;18.00;99.90
17146;DHT22;8688;54.444;18.444;2023-08-20T01:53:56;17.90;99.90
17146;DHT22;8688;54.444;18.444;2023-08-20T01:56:24;17.90;99.90
17146;DHT22;8688;54.444;18.444;2023-08-20T01:58:51;17.90;99.90
17146;DHT22;8688;54.444;18.444;2023-08-20T02:01:19;17.90;99.90
17146;DHT22;8688;54.444;18.444;2023-08-20T02:03:49;18.00;99.90
17146;DHT22;8688;54.444;18.444;2023-08-20T02:06:17;18.00;99.90
17146;DHT22;8688;54.444;18.444;2023-08-20T02:08:45;18.00;99.90
17146;DHT22;8688;54.444;18.444;2023-08-20T02:11:13;17.90;99.90
17146;DHT22;8688;54.444;18.444;2023-08-20T02:13:43;17.90;99.90
17146;DHT22;8688;54.444;18.444;2023-08-20T02:16:32;17.90;99.90
17146;DHT22;8688;54.444;18.444;2023-08-20T02:19:01;17.90;99.90
17146;DHT22;8688;54.444;18.444;2023-08-20T02:21:31;17.80;99.90
17146;DHT22;8688;54.444;18.444;2023-08-20T02:23:59;17.80;99.90
17146;DHT22;8688;54.444;18.444;2023-08-20T02:26:27;17.80;99.90
17146;DHT22;8688;54.444;18.444;2023-08-20T02:28:55;17.80;99.90
17146;DHT22;8688;54.444;18.444;2023-08-20T02:31:23;17.80;99.90
17146;DHT22;8688;54.444;18.444;2023-08-20T02:33:51;17.80;99.90
17146;DHT22;8688;54.444;18.444;2023-08-20T02:36:21;17.70;99.90
17146;DHT22;8688;54.444;18.444;2023-08-20T02:38:49;17.70;99.90
17146;DHT22;8688;54.444;18.444;2023-08-20T02:41:17;17.80;99.90
17146;DHT22;8688;54.444;18.444;2023-08-20T02:43:45;17.70;99.90
17146;DHT22;8688;54.444;18.444;2023-08-20T02:46:13;17.70;99.90
17146;DHT22;8688;54.444;18.444;2023-08-20T02:48:41;17.50;99.90
17146;DHT22;8688;54.444;18.444;2023-08-20T02:51:10;17.40;99.90
17146;DHT22;8688;54.444;18.444;2023-08-20T02:53:39;17.30;99.90
17146;DHT22;8688;54.444;18.444;2023-08-20T02:56:07;17.30;99.90
17146;DHT22;8688;54.444;18.444;2023-08-20T02:58:35;17.40;99.90
17146;DHT22;8688;54.444;18.444;2023-08-20T03:01:03;17.40;99.90
17146;DHT22;8688;54.444;18.444;2023-08-20T03:03:31;17.50;99.90
17146;DHT22;8688;54.444;18.444;2023-08-20T03:05:59;17.50;99.90
17146;DHT22;8688;54.444;18.444;2023-08-20T03:08:28;17.50;99.90
17146;DHT22;8688;54.444;18.444;2023-08-20T03:11:00;17.40;99.90
17146;DHT22;8688;54.444;18.444;2023-08-20T03:13:29;17.40;99.90
17146;DHT22;8688;54.444;18.444;2023-08-20T03:15:57;17.40;99.90
17146;DHT22;8688;54.444;18.444;2023-08-20T03:18:26;17.50;99.90
17146;DHT22;8688;54.444;18.444;2023-08-20T03:20:54;17.50;99.90
17146;DHT22;8688;54.444;18.444;2023-08-20T03:23:23;17.50;99.90
17146;DHT22;8688;54.444;18.444;2023-08-20T03:25:51;17.50;99.90
17146;DHT22;8688;54.444;18.444;2023-08-20T03:28:21;17.50;99.90
17146;DHT22;8688;54.444;18.444;2023-08-20T03:30:49;17.40;99.90
17146;DHT22;8688;54.444;18.444;2023-08-20T03:33:17;17.40;99.90
17146;DHT22;8688;54.444;18.444;2023-08-20T03:35:46;17.40;99.90
17146;DHT22;8688;54.444;18.444;2023-08-20T03:38:14;17.40;99.90
17146;DHT22;8688;54.444;18.444;2023-08-20T03:40:42;17.40;99.90
17146;DHT22;8688;54.444;18.444;2023-08-20T03:43:11;17.50;99.90
17146;DHT22;8688;54.444;18.444;2023-08-20T03:45:41;17.50;99.90
17146;DHT22;8688;54.444;18.444;2023-08-20T03:48:09;17.40;99.90
17146;DHT22;8688;54.444;18.444;2023-08-20T03:50:37;17.40;99.90
17146;DHT22;8688;54.444;18.444;2023-08-20T03:53:05;17.40;99.90
17146;DHT22;8688;54.444;18.444;2023-08-20T03:55:33;17.40;99.90
17146;DHT22;8688;54.444;18.444;2023-08-20T03:58:01;17.50;99.90
17146;DHT22;8688;54.444;18.444;2023-08-20T04:00:29;17.50;99.90
17146;DHT22;8688;54.444;18.444;2023-08-20T04:02:58;17.60;99.90
17146;DHT22;8688;54.444;18.444;2023-08-20T04:05:26;17.60;99.90
17146;DHT22;8688;54.444;18.444;2023-08-20T04:07:55;17.60;99.90
17146;DHT22;8688;54.444;18.444;2023-08-20T04:10:23;17.70;99.90
17146;DHT22;8688;54.444;18.444;2023-08-20T04:12:51;17.70;99.90
17146;DHT22;8688;54.444;18.444;2023-08-20T04:15:19;17.80;99.90
17146;DHT22;8688;54.444;18.444;2023-08-20T04:17:47;17.80;99.90
17146;DHT22;8688;54.444;18.444;2023-08-20T04:20:17;17.90;99.90
17146;DHT22;8688;54.444;18.444;2023-08-20T04:22:45;17.90;99.90
17146;DHT22;8688;54.444;18.444;2023-08-20T04:25:14;18.00;99.90
17146;DHT22;8688;54.444;18.444;2023-08-20T04:27:41;18.00;99.90
17146;DHT22;8688;54.444;18.444;2023-08-20T04:30:10;18.10;99.90
17146;DHT22;8688;54.444;18.444;2023-08-20T04:32:39;18.20;99.90
17146;DHT22;8688;54.444;18.444;2023-08-20T04:35:07;18.30;99.90
17146;DHT22;8688;54.444;18.444;2023-08-20T04:37:37;18.30;99.90
17146;DHT22;8688;54.444;18.444;2023-08-20T04:40:07;18.50;99.90
17146;DHT22;8688;54.444;18.444;2023-08-20T04:42:36;18.50;99.90
17146;DHT22;8688;54.444;18.444;2023-08-20T04:45:05;18.60;99.90
17146;DHT22;8688;54.444;18.444;2023-08-20T04:47:34;18.70;99.90
17146;DHT22;8688;54.444;18.444;2023-08-20T04:50:03;18.80;99.90
17146;DHT22;8688;54.444;18.444;2023-08-20T04:52:32;18.90;99.90
17146;DHT22;8688;54.444;18.444;2023-08-20T04:55:03;19.00;99.90
17146;DHT22;8688;54.444;18.444;2023-08-20T04:57:33;19.10;99.90
17146;DHT22;8688;54.444;18.444;2023-08-20T05:00:01;19.20;99.90
17146;DHT22;8688;54.444;18.444;2023-08-20T05:02:29;19.30;99.90
17146;DHT22;8688;54.444;18.444;2023-08-20T05:04:59;19.30;99.90
17146;DHT22;8688;54.444;18.444;2023-08-20T05:07:27;19.40;99.90
17146;DHT22;8688;54.444;18.444;2023-08-20T05:09:55;19.50;99.90
17146;DHT22;8688;54.444;18.444;2023-08-20T05:12:25;19.60;99.90
17146;DHT22;8688;54.444;18.444;2023-08-20T05:14:55;19.80;99.90
17146;DHT22;8688;54.444;18.444;2023-08-20T05:17:23;20.00;99.90
17146;DHT22;8688;54.444;18.444;2023-08-20T05:20:19;20.10;99.90
17146;DHT22;8688;54.444;18.444;2023-08-20T05:22:48;20.30;99.90
17146;DHT22;8688;54.444;18.444;2023-08-20T05:25:27;20.40;99.90
17146;DHT22;8688;54.444;18.444;2023-08-20T05:27:57;20.60;99.90
17146;DHT22;8688;54.444;18.444;2023-08-20T05:30:26;20.70;99.90
17146;DHT22;8688;54.444;18.444;2023-08-20T05:32:54;20.70;99.90
17146;DHT22;8688;54.444;18.444;2023-08-20T05:35:22;20.90;99.90
17146;DHT22;8688;54.444;18.444;2023-08-20T05:37:50;21.00;99.90
17146;DHT22;8688;54.444;18.444;2023-08-20T05:40:18;21.10;99.90
17146;DHT22;8688;54.444;18.444;2023-08-20T05:42:49;21.20;99.90
17146;DHT22;8688;54.444;18.444;2023-08-20T05:45:21;21.40;99.90
17146;DHT22;8688;54.444;18.444;2023-08-20T05:47:50;21.40;99.90
17146;DHT22;8688;54.444;18.444;2023-08-20T05:50:18;21.60;99.90
17146;DHT22;8688;54.444;18.444;2023-08-20T05:52:47;21.70;99.90
17146;DHT22;8688;54.444;18.444;2023-08-20T05:55:16;21.80;99.90
17146;DHT22;8688;54.444;18.444;2023-08-20T05:57:43;21.80;99.90
17146;DHT22;8688;54.444;18.444;2023-08-20T06:00:12;21.90;99.90
17146;DHT22;8688;54.444;18.444;2023-08-20T06:02:42;22.00;99.90
17146;DHT22;8688;54.444;18.444;2023-08-20T06:05:10;22.10;99.90
17146;DHT22;8688;54.444;18.444;2023-08-20T06:07:39;22.20;99.90
17146;DHT22;8688;54.444;18.444;2023-08-20T06:10:08;22.20;99.90
17146;DHT22;8688;54.444;18.444;2023-08-20T06:12:37;22.40;99.90
17146;DHT22;8688;54.444;18.444;2023-08-20T06:15:08;22.50;99.90
17146;DHT22;8688;54.444;18.444;2023-08-20T06:17:36;22.60;99.90
17146;DHT22;8688;54.444;18.444;2023-08-20T06:20:07;22.70;99.90
17146;DHT22;8688;54.444;18.444;2023-08-20T06:22:35;22.70;99.90
17146;DHT22;8688;54.444;18.444;2023-08-20T06:25:03;22.80;99.90
17146;DHT22;8688;54.444;18.444;2023-08-20T06:27:33;22.90;99.90
17146;DHT22;8688;54.444;18.444;2023-08-20T06:30:02;23.00;99.90
17146;DHT22;8688;54.444;18.444;2023-08-20T06:32:30;23.00;99.90
17146;DHT22;8688;54.444;18.444;2023-08-20T06:34:58;23.10;99.90
17146;DHT22;8688;54.444;18.444;2023-08-20T06:37:27;23.10;99.90
17146;DHT22;8688;54.444;18.444;2023-08-20T06:39:55;23.20;99.90
17146;DHT22;8688;54.444;18.444;2023-08-20T06:42:23;23.30;99.90
17146;DHT22;8688;54.444;18.444;2023-08-20T06:44:51;23.40;99.90
17146;DHT22;8688;54.444;18.444;2023-08-20T06:47:19;23.60;21.60
17146;DHT22;8688;54.444;18.444;2023-08-20T06:49:47;23.70;1.00
17146;DHT22;8688;54.444;18.444;2023-08-20T06:52:15;23.90;1.00
17146;DHT22;8688;54.444;18.444;2023-08-20T06:54:48;24.00;1.00
17146;DHT22;8688;54.444;18.444;2023-08-20T06:57:16;24.10;1.00
17146;DHT22;8688;54.444;18.444;2023-08-20T06:59:44;24.30;1.00
17146;DHT22;8688;54.444;18.444;2023-08-20T07:02:12;24.40;1.00
17146;DHT22;8688;54.444;18.444;2023-08-20T07:04:40;24.50;1.00
17146;DHT22;8688;54.444;18.444;2023-08-20T07:07:09;24.60;1.00
17146;DHT22;8688;54.444;18.444;2023-08-20T07:09:37;24.70;99.90
17146;DHT22;8688;54.444;18.444;2023-08-20T07:12:08;24.80;99.90
17146;DHT22;8688;54.444;18.444;2023-08-20T07:14:36;24.80;1.00
17146;DHT22;8688;54.444;18.444;2023-08-20T07:17:04;24.90;99.90
17146;DHT22;8688;54.444;18.444;2023-08-20T07:19:36;24.90;1.00
17146;DHT22;8688;54.444;18.444;2023-08-20T07:22:04;24.90;1.00
17146;DHT22;8688;54.444;18.444;2023-08-20T07:24:32;25.00;1.00
17146;DHT22;8688;54.444;18.444;2023-08-20T07:27:01;25.00;1.00
17146;DHT22;8688;54.444;18.444;2023-08-20T07:29:38;25.10;99.90
17146;DHT22;8688;54.444;18.444;2023-08-20T07:32:06;25.10;1.00
17146;DHT22;8688;54.444;18.444;2023-08-20T07:34:34;25.20;1.00
17146;DHT22;8688;54.444;18.444;2023-08-20T07:37:02;25.30;1.00
17146;DHT22;8688;54.444;18.444;2023-08-20T07:39:31;25.40;1.00
17146;DHT22;8688;54.444;18.444;2023-08-20T07:41:59;25.40;1.00
17146;DHT22;8688;54.444;18.444;2023-08-20T07:44:30;25.40;11.90
17146;DHT22;8688;54.444;18.444;2023-08-20T07:47:00;25.50;99.90
17146;DHT22;8688;54.444;18.444;2023-08-20T07:49:28;25.50;99.90
17146;DHT22;8688;54.444;18.444;2023-08-20T07:51:56;25.60;39.10
17146;DHT22;8688;54.444;18.444;2023-08-20T07:54:24;25.60;1.00
17146;DHT22;8688;54.444;18.444;2023-08-20T07:56:53;25.60;78.40
17146;DHT22;8688;54.444;18.444;2023-08-20T07:59:21;25.60;1.00
17146;DHT22;8688;54.444;18.444;2023-08-20T08:01:50;25.60;1.00
17146;DHT22;8688;54.444;18.444;2023-08-20T08:04:20;25.60;1.00
17146;DHT22;8688;54.444;18.444;2023-08-20T08:06:49;25.70;1.00
17146;DHT22;8688;54.444;18.444;2023-08-20T08:09:21;25.60;1.00
17146;DHT22;8688;54.444;18.444;2023-08-20T08:11:49;25.70;99.90
17146;DHT22;8688;54.444;18.444;2023-08-20T08:14:17;25.70;1.00
17146;DHT22;8688;54.444;18.444;2023-08-20T08:16:54;25.70;99.90
17146;DHT22;8688;54.444;18.444;2023-08-20T08:19:24;25.70;1.00
17146;DHT22;8688;54.444;18.444;2023-08-20T08:21:52;25.80;1.00
17146;DHT22;8688;54.444;18.444;2023-08-20T08:24:20;25.90;99.90
17146;DHT22;8688;54.444;18.444;2023-08-20T08:26:48;26.00;1.00
17146;DHT22;8688;54.444;18.444;2023-08-20T08:29:16;26.10;1.00
17146;DHT22;8688;54.444;18.444;2023-08-20T08:31:44;26.20;1.00
17146;DHT22;8688;54.444;18.444;2023-08-20T08:34:12;26.30;99.90
17146;DHT22;8688;54.444;18.444;2023-08-20T08:36:42;26.30;1.00
17146;DHT22;8688;54.444;18.444;2023-08-20T08:39:11;26.50;99.90
17146;DHT22;8688;54.444;18.444;2023-08-20T08:41:39;26.50;1.00
17146;DHT22;8688;54.444;18.444;2023-08-20T08:44:09;26.60;99.90
17146;DHT22;8688;54.444;18.444;2023-08-20T08:46:38;26.60;99.90
17146;DHT22;8688;54.444;18.444;2023-08-20T08:49:06;26.60;1.00
17146;DHT22;8688;54.444;18.444;2023-08-20T08:51:36;26.70;99.90
17146;DHT22;8688;54.444;18.444;2023-08-20T08:54:06;26.90;1.00
17146;DHT22;8688;54.444;18.444;2023-08-20T08:56:35;27.00;70.60
17146;DHT22;8688;54.444;18.444;2023-08-20T08:59:09;27.10;1.00
17146;DHT22;8688;54.444;18.444;2023-08-20T09:01:52;27.20;1.00
17146;DHT22;8688;54.444;18.444;2023-08-20T09:04:20;27.40;99.90
17146;DHT22;8688;54.444;18.444;2023-08-20T09:06:48;27.50;99.90
17146;DHT22;8688;54.444;18.444;2023-08-20T09:09:20;27.60;1.00
17146;DHT22;8688;54.444;18.444;2023-08-20T09:11:48;27.60;1.00
17146;DHT22;8688;54.444;18.444;2023-08-20T09:14:22;27.60;99.90
17146;DHT22;8688;54.444;18.444;2023-08-20T09:17:00;27.60;99.90
17146;DHT22;8688;54.444;18.444;2023-08-20T09:19:29;27.60;99.90
17146;DHT22;8688;54.444;18.444;2023-08-20T09:21:59;27.60;1.00
17146;DHT22;8688;54.444;18.444;2023-08-20T09:24:32;27.60;1.00
17146;DHT22;8688;54.444;18.444;2023-08-20T09:27:03;27.60;1.00
17146;DHT22;8688;54.444;18.444;2023-08-20T09:29:32;27.60;99.90
17146;DHT22;8688;54.444;18.444;2023-08-20T09:32:01;27.70;99.90
17146;DHT22;8688;54.444;18.444;2023-08-20T09:34:37;27.70;1.00
17146;DHT22;8688;54.444;18.444;2023-08-20T09:37:08;27.70;1.00
17146;DHT22;8688;54.444;18.444;2023-08-20T09:39:37;27.70;1.00
17146;DHT22;8688;54.444;18.444;2023-08-20T09:42:06;27.70;1.00
17146;DHT22;8688;54.444;18.444;2023-08-20T09:44:35;27.70;1.00
17146;DHT22;8688;54.444;18.444;2023-08-20T09:47:05;27.70;1.00
17146;DHT22;8688;54.444;18.444;2023-08-20T09:49:37;27.60;99.90
17146;DHT22;8688;54.444;18.444;2023-08-20T09:52:07;27.60;99.90
17146;DHT22;8688;54.444;18.444;2023-08-20T09:54:47;27.50;99.90
17146;DHT22;8688;54.444;18.444;2023-08-20T09:57:26;27.50;99.90
17146;DHT22;8688;54.444;18.444;2023-08-20T09:59:55;27.50;99.90
17146;DHT22;8688;54.444;18.444;2023-08-20T10:02:24;27.50;99.90
17146;DHT22;8688;54.444;18.444;2023-08-20T10:04:53;27.50;99.90
17146;DHT22;8688;54.444;18.444;2023-08-20T10:07:21;27.60;1.00
17146;DHT22;8688;54.444;18.444;2023-08-20T10:09:52;27.80;99.90
17146;DHT22;8688;54.444;18.444;2023-08-20T10:12:20;28.00;99.90
17146;DHT22;8688;54.444;18.444;2023-08-20T10:14:48;28.00;76.50
17146;DHT22;8688;54.444;18.444;2023-08-20T10:17:18;28.00;1.00
17146;DHT22;8688;54.444;18.444;2023-08-20T10:19:47;28.10;54.80
17146;DHT22;8688;54.444;18.444;2023-08-20T10:22:15;28.20;16.80
17146;DHT22;8688;54.444;18.444;2023-08-20T10:24:52;28.10;47.30
17146;DHT22;8688;54.444;18.444;2023-08-20T10:27:26;28.10;6.80
17146;DHT22;8688;54.444;18.444;2023-08-20T10:29:54;28.10;10.10
17146;DHT22;8688;54.444;18.444;2023-08-20T10:32:43;28.00;1.00
17146;DHT22;8688;54.444;18.444;2023-08-20T10:35:11;27.70;1.00
17146;DHT22;8688;54.444;18.444;2023-08-20T10:37:39;27.50;1.00
17146;DHT22;8688;54.444;18.444;2023-08-20T10:40:48;27.30;1.00
17146;DHT22;8688;54.444;18.444;2023-08-20T10:43:29;27.10;1.00
17146;DHT22;8688;54.444;18.444;2023-08-20T10:46:19;26.90;99.90
17146;DHT22;8688;54.444;18.444;2023-08-20T10:48:48;26.90;51.60
17146;DHT22;8688;54.444;18.444;2023-08-20T10:51:18;26.70;1.00
17146;DHT22;8688;54.444;18.444;2023-08-20T10:54:03;26.70;99.90
17146;DHT22;8688;54.444;18.444;2023-08-20T10:56:43;26.70;1.00
17146;DHT22;8688;54.444;18.444;2023-08-20T10:59:14;26.70;1.00
17146;DHT22;8688;54.444;18.444;2023-08-20T11:01:44;26.60;1.00
17146;DHT22;8688;54.444;18.444;2023-08-20T11:04:12;26.40;1.00
17146;DHT22;8688;54.444;18.444;2023-08-20T11:06:41;26.30;99.90
17146;DHT22;8688;54.444;18.444;2023-08-20T11:09:14;26.30;1.00
17146;DHT22;8688;54.444;18.444;2023-08-20T11:11:45;26.20;1.00
17146;DHT22;8688;54.444;18.444;2023-08-20T11:14:13;26.10;99.90
17146;DHT22;8688;54.444;18.444;2023-08-20T11:16:41;26.00;99.90
17146;DHT22;8688;54.444;18.444;2023-08-20T11:19:09;26.00;1.00
17146;DHT22;8688;54.444;18.444;2023-08-20T11:21:38;26.00;99.90
17146;DHT22;8688;54.444;18.444;2023-08-20T11:24:06;26.00;1.00
17146;DHT22;8688;54.444;18.444;2023-08-20T11:26:34;26.10;1.00
17146;DHT22;8688;54.444;18.444;2023-08-20T11:29:08;26.30;99.90
17146;DHT22;8688;54.444;18.444;2023-08-20T11:31:37;26.70;99.90
17146;DHT22;8688;54.444;18.444;2023-08-20T11:34:06;27.10;99.90
17146;DHT22;8688;54.444;18.444;2023-08-20T11:36:39;27.50;99.90
17146;DHT22;8688;54.444;18.444;2023-08-20T11:39:08;27.60;1.00
17146;DHT22;8688;54.444;18.444;2023-08-20T11:41:38;27.60;1.00
17146;DHT22;8688;54.444;18.444;2023-08-20T11:44:08;27.60;1.00
17146;DHT22;8688;54.444;18.444;2023-08-20T11:46:42;27.70;1.00
17146;DHT22;8688;54.444;18.444;2023-08-20T11:49:12;27.60;1.00
17146;DHT22;8688;54.444;18.444;2023-08-20T11:51:41;27.20;1.00
17146;DHT22;8688;54.444;18.444;2023-08-20T11:54:11;27.00;1.00
17146;DHT22;8688;54.444;18.444;2023-08-20T11:56:44;26.80;1.00
17146;DHT22;8688;54.444;18.444;2023-08-20T11:59:14;26.90;99.90
17146;DHT22;8688;54.444;18.444;2023-08-20T12:01:42;26.80;8.20
17146;DHT22;8688;54.444;18.444;2023-08-20T12:04:11;26.50;1.00
17146;DHT22;8688;54.444;18.444;2023-08-20T12:06:39;26.30;99.90
17146;DHT22;8688;54.444;18.444;2023-08-20T12:09:20;26.00;1.00
17146;DHT22;8688;54.444;18.444;2023-08-20T12:11:52;25.80;99.90
17146;DHT22;8688;54.444;18.444;2023-08-20T12:14:24;25.60;1.00
17146;DHT22;8688;54.444;18.444;2023-08-20T12:16:54;25.40;99.90
17146;DHT22;8688;54.444;18.444;2023-08-20T12:19:22;25.20;99.90
17146;DHT22;8688;54.444;18.444;2023-08-20T12:21:50;25.10;99.90
17146;DHT22;8688;54.444;18.444;2023-08-20T12:24:19;25.10;1.00
17146;DHT22;8688;54.444;18.444;2023-08-20T12:26:47;25.00;99.90
17146;DHT22;8688;54.444;18.444;2023-08-20T12:29:17;25.10;1.00
17146;DHT22;8688;54.444;18.444;2023-08-20T12:31:46;25.10;99.90
17146;DHT22;8688;54.444;18.444;2023-08-20T12:34:14;25.10;78.90
17146;DHT22;8688;54.444;18.444;2023-08-20T12:36:42;25.10;99.90
17146;DHT22;8688;54.444;18.444;2023-08-20T12:39:10;25.10;99.90
17146;DHT22;8688;54.444;18.444;2023-08-20T12:41:40;25.10;1.00
17146;DHT22;8688;54.444;18.444;2023-08-20T12:44:10;25.20;99.90
17146;DHT22;8688;54.444;18.444;2023-08-20T12:46:38;25.40;1.00
17146;DHT22;8688;54.444;18.444;2023-08-20T12:49:07;25.40;1.00
17146;DHT22;8688;54.444;18.444;2023-08-20T12:51:38;25.50;99.90
17146;DHT22;8688;54.444;18.444;2023-08-20T12:54:11;25.40;1.00
17146;DHT22;8688;54.444;18.444;2023-08-20T12:56:42;25.30;1.00
17146;DHT22;8688;54.444;18.444;2023-08-20T12:59:13;25.30;99.90
17146;DHT22;8688;54.444;18.444;2023-08-20T13:01:46;25.20;99.90
17146;DHT22;8688;54.444;18.444;2023-08-20T13:04:18;25.60;99.90
17146;DHT22;8688;54.444;18.444;2023-08-20T13:06:56;25.80;99.90
17146;DHT22;8688;54.444;18.444;2023-08-20T13:09:26;26.00;99.90
17146;DHT22;8688;54.444;18.444;2023-08-20T13:11:56;26.10;99.90
17146;DHT22;8688;54.444;18.444;2023-08-20T13:14:28;26.20;1.00
17146;DHT22;8688;54.444;18.444;2023-08-20T13:17:00;26.10;1.00
17146;DHT22;8688;54.444;18.444;2023-08-20T13:19:33;26.00;1.00
17146;DHT22;8688;54.444;18.444;2023-08-20T13:22:00;26.20;1.00
17146;DHT22;8688;54.444;18.444;2023-08-20T13:24:29;26.50;99.90
17146;DHT22;8688;54.444;18.444;2023-08-20T13:27:06;26.80;99.90
17146;DHT22;8688;54.444;18.444;2023-08-20T13:29:34;26.90;99.90
17146;DHT22;8688;54.444;18.444;2023-08-20T13:32:05;26.90;99.90
17146;DHT22;8688;54.444;18.444;2023-08-20T13:34:35;26.70;99.90
17146;DHT22;8688;54.444;18.444;2023-08-20T13:37:03;26.40;1.00
17146;DHT22;8688;54.444;18.444;2023-08-20T13:39:31;26.30;1.00
17146;DHT22;8688;54.444;18.444;2023-08-20T13:42:01;26.30;99.90
17146;DHT22;8688;54.444;18.444;2023-08-20T13:44:29;26.30;99.90
17146;DHT22;8688;54.444;18.444;2023-08-20T13:46:58;26.30;1.00
17146;DHT22;8688;54.444;18.444;2023-08-20T13:49:26;26.30;1.00
17146;DHT22;8688;54.444;18.444;2023-08-20T13:51:55;26.60;1.00
17146;DHT22;8688;54.444;18.444;2023-08-20T13:54:23;26.80;1.00
17146;DHT22;8688;54.444;18.444;2023-08-20T13:56:51;26.80;99.90
17146;DHT22;8688;54.444;18.444;2023-08-20T13:59:20;26.90;99.90
17146;DHT22;8688;54.444;18.444;2023-08-20T14:01:52;27.30;1.00
17146;DHT22;8688;54.444;18.444;2023-08-20T14:04:21;27.30;50.10
17146;DHT22;8688;54.444;18.444;2023-08-20T14:06:50;27.30;1.00
17146;DHT22;8688;54.444;18.444;2023-08-20T14:09:22;27.10;1.00
17146;DHT22;8688;54.444;18.444;2023-08-20T14:11:51;26.90;65.50
17146;DHT22;8688;54.444;18.444;2023-08-20T14:14:22;26.90;1.00
17146;DHT22;8688;54.444;18.444;2023-08-20T14:16:54;27.00;1.00
17146;DHT22;8688;54.444;18.444;2023-08-20T14:19:22;27.30;1.00
17146;DHT22;8688;54.444;18.444;2023-08-20T14:21:51;27.30;1.00
17146;DHT22;8688;54.444;18.444;2023-08-20T14:24:19;27.30;1.00
17146;DHT22;8688;54.444;18.444;2023-08-20T14:26:48;27.30;1.00
17146;DHT22;8688;54.444;18.444;2023-08-20T14:29:16;27.30;1.00
17146;DHT22;8688;54.444;18.444;2023-08-20T14:31:44;27.10;1.00
17146;DHT22;8688;54.444;18.444;2023-08-20T14:34:12;27.20;1.00
17146;DHT22;8688;54.444;18.444;2023-08-20T14:36:40;27.30;1.00
17146;DHT22;8688;54.444;18.444;2023-08-20T14:39:08;27.20;1.00
17146;DHT22;8688;54.444;18.444;2023-08-20T14:41:36;27.00;1.00
17146;DHT22;8688;54.444;18.444;2023-08-20T14:44:06;26.90;1.00
17146;DHT22;8688;54.444;18.444;2023-08-20T14:46:34;27.10;1.00
17146;DHT22;8688;54.444;18.444;2023-08-20T14:49:02;27.00;1.00
17146;DHT22;8688;54.444;18.444;2023-08-20T14:51:30;26.90;1.00
17146;DHT22;8688;54.444;18.444;2023-08-20T14:53:58;26.90;1.00
17146;DHT22;8688;54.444;18.444;2023-08-20T14:56:26;26.80;1.00
17146;DHT22;8688;54.444;18.444;2023-08-20T14:58:54;26.50;1.00
17146;DHT22;8688;54.444;18.444;2023-08-20T15:01:23;26.40;1.00
17146;DHT22;8688;54.444;18.444;2023-08-20T15:03:51;26.20;1.00
17146;DHT22;8688;54.444;18.444;2023-08-20T15:06:22;26.10;1.00
17146;DHT22;8688;54.444;18.444;2023-08-20T15:08:52;26.00;1.00
17146;DHT22;8688;54.444;18.444;2023-08-20T15:11:21;25.90;1.00
17146;DHT22;8688;54.444;18.444;2023-08-20T15:13:52;25.80;1.00
17146;DHT22;8688;54.444;18.444;2023-08-20T15:16:27;25.80;1.00
17146;DHT22;8688;54.444;18.444;2023-08-20T15:18:58;25.90;1.00
17146;DHT22;8688;54.444;18.444;2023-08-20T15:21:27;25.80;1.00
17146;DHT22;8688;54.444;18.444;2023-08-20T15:23:56;25.70;99.90
17146;DHT22;8688;54.444;18.444;2023-08-20T15:26:24;25.60;1.00
17146;DHT22;8688;54.444;18.444;2023-08-20T15:29:19;25.70;1.00
17146;DHT22;8688;54.444;18.444;2023-08-20T15:31:57;26.00;1.00
17146;DHT22;8688;54.444;18.444;2023-08-20T15:34:28;26.00;1.00
17146;DHT22;8688;54.444;18.444;2023-08-20T15:37:00;26.10;1.00
17146;DHT22;8688;54.444;18.444;2023-08-20T15:39:33;25.90;1.00
17146;DHT22;8688;54.444;18.444;2023-08-20T15:42:09;25.60;1.00
17146;DHT22;8688;54.444;18.444;2023-08-20T15:44:38;25.30;99.90
17146;DHT22;8688;54.444;18.444;2023-08-20T15:47:10;25.10;57.10
17146;DHT22;8688;54.444;18.444;2023-08-20T15:49:44;25.00;99.90
17146;DHT22;8688;54.444;18.444;2023-08-20T15:52:12;24.80;99.90